This is the latest recevied weather packets stored in our database for station/object KD8LPB. If no packets are shown the sender has not sent any weather packets the latest 10 day(s).
| Time | Temp. | Humidity | Pressure | Rain* | Wind** | Luminosity | Snow |
|---|---|---|---|---|---|---|---|
| 1777473939 | 2.22° C | 95% | 1015.2 hPa | 0 mm | - | - | - |
| 1777473035 | 2.22° C | 94% | 1015.3 hPa | 0 mm | - | - | - |
| 1777472138 | 2.22° C | 95% | 1015.3 hPa | 0 mm | - | - | - |
| 1777464940 | 1.67° C | 96% | 1015 hPa | 0 mm | - | - | - |
| 1777462236 | 1.67° C | 97% | 1014.6 hPa | 0 mm | - | - | - |
| 1777458639 | 0° C | 99% | 1014.2 hPa | 0 mm | - | - | - |
| 1777457737 | 0° C | 99% | 1013.9 hPa | 0 mm | - | - | - |
| 1777456850 | 0° C | 99% | 1013.7 hPa | 0 mm | - | - | - |
| 1777453237 | 1.11° C | 97% | 1013.2 hPa | 0 mm | - | - | - |
| 1777450544 | 1.67° C | 96% | 1013.1 hPa | 0 mm | - | - | - |
| 1777439739 | 2.22° C | 94% | 1013.2 hPa | 0 mm | - | - | - |
| 1777436142 | 2.22° C | 94% | 1013.1 hPa | 0 mm | - | - | - |
| 1777432538 | 2.22° C | 93% | 1012.2 hPa | 0 mm | - | - | - |
| 1777431638 | 2.22° C | 93% | 1012.1 hPa | 0 mm | - | - | - |
| 1777421745 | 2.78° C | 92% | 1010.9 hPa | 0 mm | - | - | - |
| 1777420836 | 2.78° C | 91% | 1010.6 hPa | 0 mm | - | - | - |
| 1777419038 | 3.33° C | 90% | 1010.2 hPa | 0 mm | - | - | - |
| 1777418146 | 3.33° C | 90% | 1010.2 hPa | 0 mm | - | - | - |
| 1777412737 | 3.89° C | 89% | 1008.7 hPa | 0 mm | - | - | - |
| 1777409148 | 5° C | 86% | 1007.7 hPa | 0 mm | - | - | - |
| 1777408259 | 5° C | 86% | 1007.4 hPa | 0 mm | - | - | - |
| 1777406448 | 4.44° C | 88% | 1007.1 hPa | 0 mm | - | - | - |
| 1777404652 | 4.44° C | 88% | 1006.6 hPa | 0 mm | - | - | - |
| 1777403738 | 4.44° C | 88% | 1006.4 hPa | 0 mm | - | - | - |
| 1777398338 | 4.44° C | 89% | 1004.8 hPa | 0 mm | - | - | - |
* Rain latest hour (hover to see other rain measurements)
** Current wind speed in m/s (hover to see current wind gust speed)